sensor_id;sensor_type;location;lat;lon;timestamp;temperature;humidity
21092;DHT22;10704;42.678;23.288;2023-12-28T00:01:30;4.30;99.90
21092;DHT22;10704;42.678;23.288;2023-12-28T00:03:55;4.20;99.90
21092;DHT22;10704;42.678;23.288;2023-12-28T00:06:21;4.10;99.90
21092;DHT22;10704;42.678;23.288;2023-12-28T00:08:47;4.10;99.90
21092;DHT22;10704;42.678;23.288;2023-12-28T00:11:14;4.00;99.90
21092;DHT22;10704;42.678;23.288;2023-12-28T00:13:40;3.90;99.90
21092;DHT22;10704;42.678;23.288;2023-12-28T00:16:06;3.90;99.90
21092;DHT22;10704;42.678;23.288;2023-12-28T00:18:32;3.90;99.90
21092;DHT22;10704;42.678;23.288;2023-12-28T00:20:58;3.80;99.90
21092;DHT22;10704;42.678;23.288;2023-12-28T00:23:24;3.80;99.90
21092;DHT22;10704;42.678;23.288;2023-12-28T00:25:50;3.90;99.90
21092;DHT22;10704;42.678;23.288;2023-12-28T00:28:15;4.10;99.90
21092;DHT22;10704;42.678;23.288;2023-12-28T00:30:42;4.00;99.90
21092;DHT22;10704;42.678;23.288;2023-12-28T00:33:07;3.80;99.90
21092;DHT22;10704;42.678;23.288;2023-12-28T00:35:33;3.80;99.90
21092;DHT22;10704;42.678;23.288;2023-12-28T00:37:59;3.70;99.90
21092;DHT22;10704;42.678;23.288;2023-12-28T00:40:25;3.60;99.90
21092;DHT22;10704;42.678;23.288;2023-12-28T00:42:51;3.60;99.90
21092;DHT22;10704;42.678;23.288;2023-12-28T00:45:36;3.50;99.90
21092;DHT22;10704;42.678;23.288;2023-12-28T00:48:02;3.60;99.90
21092;DHT22;10704;42.678;23.288;2023-12-28T00:50:28;3.60;99.90
21092;DHT22;10704;42.678;23.288;2023-12-28T00:52:57;3.60;99.90
21092;DHT22;10704;42.678;23.288;2023-12-28T00:55:23;3.80;99.90
21092;DHT22;10704;42.678;23.288;2023-12-28T00:57:49;3.90;99.90
21092;DHT22;10704;42.678;23.288;2023-12-28T01:00:15;3.90;99.90
21092;DHT22;10704;42.678;23.288;2023-12-28T01:02:41;3.70;99.90
21092;DHT22;10704;42.678;23.288;2023-12-28T01:05:08;3.70;99.90
21092;DHT22;10704;42.678;23.288;2023-12-28T01:07:34;3.70;99.90
21092;DHT22;10704;42.678;23.288;2023-12-28T01:10:00;3.60;99.90
21092;DHT22;10704;42.678;23.288;2023-12-28T01:12:26;3.50;99.90
21092;DHT22;10704;42.678;23.288;2023-12-28T01:14:52;3.50;99.90
21092;DHT22;10704;42.678;23.288;2023-12-28T01:17:18;3.50;99.90
21092;DHT22;10704;42.678;23.288;2023-12-28T01:19:45;3.50;99.90
21092;DHT22;10704;42.678;23.288;2023-12-28T01:22:11;3.60;99.90
21092;DHT22;10704;42.678;23.288;2023-12-28T01:24:37;3.70;99.90
21092;DHT22;10704;42.678;23.288;2023-12-28T01:27:03;3.80;99.90
21092;DHT22;10704;42.678;23.288;2023-12-28T01:29:29;3.70;99.90
21092;DHT22;10704;42.678;23.288;2023-12-28T01:31:55;3.60;99.90
21092;DHT22;10704;42.678;23.288;2023-12-28T01:34:21;3.50;99.90
21092;DHT22;10704;42.678;23.288;2023-12-28T01:36:47;3.40;99.90
21092;DHT22;10704;42.678;23.288;2023-12-28T01:39:13;3.50;99.90
21092;DHT22;10704;42.678;23.288;2023-12-28T01:41:41;3.50;99.90
21092;DHT22;10704;42.678;23.288;2023-12-28T01:44:06;3.40;99.90
21092;DHT22;10704;42.678;23.288;2023-12-28T01:46:33;3.40;99.90
21092;DHT22;10704;42.678;23.288;2023-12-28T01:49:00;3.40;99.90
21092;DHT22;10704;42.678;23.288;2023-12-28T01:51:27;3.30;99.90
21092;DHT22;10704;42.678;23.288;2023-12-28T01:53:54;3.50;99.90
21092;DHT22;10704;42.678;23.288;2023-12-28T01:56:21;3.60;99.90
21092;DHT22;10704;42.678;23.288;2023-12-28T01:58:49;3.60;99.90
21092;DHT22;10704;42.678;23.288;2023-12-28T02:01:16;3.50;99.90
21092;DHT22;10704;42.678;23.288;2023-12-28T02:03:42;3.40;99.90
21092;DHT22;10704;42.678;23.288;2023-12-28T02:06:10;3.40;99.90
21092;DHT22;10704;42.678;23.288;2023-12-28T02:08:36;3.40;99.90
21092;DHT22;10704;42.678;23.288;2023-12-28T02:11:03;3.30;99.90
21092;DHT22;10704;42.678;23.288;2023-12-28T02:13:29;3.20;99.90
21092;DHT22;10704;42.678;23.288;2023-12-28T02:16:01;3.10;99.90
21092;DHT22;10704;42.678;23.288;2023-12-28T02:18:37;3.10;99.90
21092;DHT22;10704;42.678;23.288;2023-12-28T02:21:04;3.10;99.90
21092;DHT22;10704;42.678;23.288;2023-12-28T02:23:34;3.20;99.90
21092;DHT22;10704;42.678;23.288;2023-12-28T02:26:00;3.40;99.90
21092;DHT22;10704;42.678;23.288;2023-12-28T02:28:26;3.50;99.90
21092;DHT22;10704;42.678;23.288;2023-12-28T02:30:52;3.30;99.90
21092;DHT22;10704;42.678;23.288;2023-12-28T02:33:19;3.20;99.90
21092;DHT22;10704;42.678;23.288;2023-12-28T02:35:57;3.10;99.90
21092;DHT22;10704;42.678;23.288;2023-12-28T02:38:24;3.00;99.90
21092;DHT22;10704;42.678;23.288;2023-12-28T02:40:50;2.90;99.90
21092;DHT22;10704;42.678;23.288;2023-12-28T02:43:16;2.80;99.90
21092;DHT22;10704;42.678;23.288;2023-12-28T02:45:42;2.80;99.90
21092;DHT22;10704;42.678;23.288;2023-12-28T02:48:08;2.70;99.90
21092;DHT22;10704;42.678;23.288;2023-12-28T02:50:35;2.60;99.90
21092;DHT22;10704;42.678;23.288;2023-12-28T02:53:01;2.60;99.90
21092;DHT22;10704;42.678;23.288;2023-12-28T02:55:27;2.60;99.90
21092;DHT22;10704;42.678;23.288;2023-12-28T02:57:55;2.50;99.90
21092;DHT22;10704;42.678;23.288;2023-12-28T03:00:21;2.60;99.90
21092;DHT22;10704;42.678;23.288;2023-12-28T03:02:47;2.90;99.90
21092;DHT22;10704;42.678;23.288;2023-12-28T03:05:13;3.00;99.90
21092;DHT22;10704;42.678;23.288;2023-12-28T03:07:39;3.00;99.90
21092;DHT22;10704;42.678;23.288;2023-12-28T03:10:07;3.00;99.90
21092;DHT22;10704;42.678;23.288;2023-12-28T03:12:33;3.00;99.90
21092;DHT22;10704;42.678;23.288;2023-12-28T03:15:02;3.10;99.90
21092;DHT22;10704;42.678;23.288;2023-12-28T03:17:28;3.00;99.90
21092;DHT22;10704;42.678;23.288;2023-12-28T03:19:57;2.90;99.90
21092;DHT22;10704;42.678;23.288;2023-12-28T03:22:23;2.80;99.90
21092;DHT22;10704;42.678;23.288;2023-12-28T03:24:50;2.70;99.90
21092;DHT22;10704;42.678;23.288;2023-12-28T03:27:16;2.70;99.90
21092;DHT22;10704;42.678;23.288;2023-12-28T03:29:42;2.60;99.90
21092;DHT22;10704;42.678;23.288;2023-12-28T03:32:11;2.70;99.90
21092;DHT22;10704;42.678;23.288;2023-12-28T03:34:37;2.70;99.90
21092;DHT22;10704;42.678;23.288;2023-12-28T03:37:03;2.60;99.90
21092;DHT22;10704;42.678;23.288;2023-12-28T03:39:29;2.50;99.90
21092;DHT22;10704;42.678;23.288;2023-12-28T03:41:55;2.40;99.90
21092;DHT22;10704;42.678;23.288;2023-12-28T03:44:22;2.40;99.90
21092;DHT22;10704;42.678;23.288;2023-12-28T03:46:49;2.30;99.90
21092;DHT22;10704;42.678;23.288;2023-12-28T03:49:19;2.20;99.90
21092;DHT22;10704;42.678;23.288;2023-12-28T03:51:46;2.10;99.90
21092;DHT22;10704;42.678;23.288;2023-12-28T03:54:12;2.20;99.90
21092;DHT22;10704;42.678;23.288;2023-12-28T03:56:41;2.00;99.90
21092;DHT22;10704;42.678;23.288;2023-12-28T03:59:12;2.00;99.90
21092;DHT22;10704;42.678;23.288;2023-12-28T04:01:38;2.20;99.90
21092;DHT22;10704;42.678;23.288;2023-12-28T04:04:04;2.20;99.90
21092;DHT22;10704;42.678;23.288;2023-12-28T04:06:30;2.10;99.90
21092;DHT22;10704;42.678;23.288;2023-12-28T04:08:57;2.10;99.90
21092;DHT22;10704;42.678;23.288;2023-12-28T04:11:23;2.00;99.90
21092;DHT22;10704;42.678;23.288;2023-12-28T04:13:49;2.00;99.90
21092;DHT22;10704;42.678;23.288;2023-12-28T04:16:15;2.10;99.90
21092;DHT22;10704;42.678;23.288;2023-12-28T04:18:42;1.90;99.90
21092;DHT22;10704;42.678;23.288;2023-12-28T04:21:12;1.90;99.90
21092;DHT22;10704;42.678;23.288;2023-12-28T04:23:40;2.00;99.90
21092;DHT22;10704;42.678;23.288;2023-12-28T04:26:07;2.20;99.90
21092;DHT22;10704;42.678;23.288;2023-12-28T04:28:34;2.20;99.90
21092;DHT22;10704;42.678;23.288;2023-12-28T04:31:06;2.20;99.90
21092;DHT22;10704;42.678;23.288;2023-12-28T04:33:32;2.30;99.90
21092;DHT22;10704;42.678;23.288;2023-12-28T04:36:03;2.40;99.90
21092;DHT22;10704;42.678;23.288;2023-12-28T04:38:32;2.40;99.90
21092;DHT22;10704;42.678;23.288;2023-12-28T04:40:59;2.30;99.90
21092;DHT22;10704;42.678;23.288;2023-12-28T04:43:26;2.10;99.90
21092;DHT22;10704;42.678;23.288;2023-12-28T04:45:52;2.00;99.90
21092;DHT22;10704;42.678;23.288;2023-12-28T04:48:18;1.90;99.90
21092;DHT22;10704;42.678;23.288;2023-12-28T04:50:49;1.90;99.90
21092;DHT22;10704;42.678;23.288;2023-12-28T04:53:15;1.90;99.90
21092;DHT22;10704;42.678;23.288;2023-12-28T04:55:42;1.90;99.90
21092;DHT22;10704;42.678;23.288;2023-12-28T04:58:08;1.90;99.90
21092;DHT22;10704;42.678;23.288;2023-12-28T05:00:33;1.90;99.90
21092;DHT22;10704;42.678;23.288;2023-12-28T05:02:59;1.90;99.90
21092;DHT22;10704;42.678;23.288;2023-12-28T05:05:25;2.00;99.90
21092;DHT22;10704;42.678;23.288;2023-12-28T05:07:51;2.10;99.90
21092;DHT22;10704;42.678;23.288;2023-12-28T05:10:17;2.20;99.90
21092;DHT22;10704;42.678;23.288;2023-12-28T05:12:43;2.20;99.90
21092;DHT22;10704;42.678;23.288;2023-12-28T05:15:09;2.20;99.90
21092;DHT22;10704;42.678;23.288;2023-12-28T05:17:35;2.00;99.90
21092;DHT22;10704;42.678;23.288;2023-12-28T05:20:01;2.00;99.90
21092;DHT22;10704;42.678;23.288;2023-12-28T05:22:27;2.00;99.90
21092;DHT22;10704;42.678;23.288;2023-12-28T05:24:53;2.10;99.90
21092;DHT22;10704;42.678;23.288;2023-12-28T05:27:19;2.00;99.90
21092;DHT22;10704;42.678;23.288;2023-12-28T05:29:45;2.10;99.90
21092;DHT22;10704;42.678;23.288;2023-12-28T05:32:11;2.10;99.90
21092;DHT22;10704;42.678;23.288;2023-12-28T05:34:37;2.10;99.90
21092;DHT22;10704;42.678;23.288;2023-12-28T05:37:02;2.00;99.90
21092;DHT22;10704;42.678;23.288;2023-12-28T05:39:28;2.00;99.90
21092;DHT22;10704;42.678;23.288;2023-12-28T05:41:54;2.00;99.90
21092;DHT22;10704;42.678;23.288;2023-12-28T05:44:20;2.00;99.90
21092;DHT22;10704;42.678;23.288;2023-12-28T05:46:46;2.00;99.90
21092;DHT22;10704;42.678;23.288;2023-12-28T05:49:12;1.90;99.90
21092;DHT22;10704;42.678;23.288;2023-12-28T05:51:42;1.80;99.90
21092;DHT22;10704;42.678;23.288;2023-12-28T05:54:08;1.80;99.90
21092;DHT22;10704;42.678;23.288;2023-12-28T05:56:34;1.90;99.90
21092;DHT22;10704;42.678;23.288;2023-12-28T05:59:00;1.80;99.90
21092;DHT22;10704;42.678;23.288;2023-12-28T06:01:26;2.00;99.90
21092;DHT22;10704;42.678;23.288;2023-12-28T06:03:53;2.20;99.90
21092;DHT22;10704;42.678;23.288;2023-12-28T06:06:19;2.30;99.90
21092;DHT22;10704;42.678;23.288;2023-12-28T06:08:46;2.10;99.90
21092;DHT22;10704;42.678;23.288;2023-12-28T06:11:12;2.00;99.90
21092;DHT22;10704;42.678;23.288;2023-12-28T06:13:38;2.00;99.90
21092;DHT22;10704;42.678;23.288;2023-12-28T06:16:04;1.90;99.90
21092;DHT22;10704;42.678;23.288;2023-12-28T06:18:30;1.80;99.90
21092;DHT22;10704;42.678;23.288;2023-12-28T06:20:56;1.80;99.90
21092;DHT22;10704;42.678;23.288;2023-12-28T06:23:22;1.70;99.90
21092;DHT22;10704;42.678;23.288;2023-12-28T06:25:48;1.80;99.90
21092;DHT22;10704;42.678;23.288;2023-12-28T06:28:14;1.80;99.90
21092;DHT22;10704;42.678;23.288;2023-12-28T06:30:40;1.90;99.90
21092;DHT22;10704;42.678;23.288;2023-12-28T06:33:06;1.90;99.90
21092;DHT22;10704;42.678;23.288;2023-12-28T06:35:32;2.00;99.90
21092;DHT22;10704;42.678;23.288;2023-12-28T06:37:58;2.00;99.90
21092;DHT22;10704;42.678;23.288;2023-12-28T06:40:24;2.10;99.90
21092;DHT22;10704;42.678;23.288;2023-12-28T06:42:49;2.40;99.90
21092;DHT22;10704;42.678;23.288;2023-12-28T06:45:16;2.30;99.90
21092;DHT22;10704;42.678;23.288;2023-12-28T06:47:42;2.30;99.90
21092;DHT22;10704;42.678;23.288;2023-12-28T06:50:08;2.20;99.90
21092;DHT22;10704;42.678;23.288;2023-12-28T06:52:35;2.20;99.90
21092;DHT22;10704;42.678;23.288;2023-12-28T06:55:01;2.30;99.90
21092;DHT22;10704;42.678;23.288;2023-12-28T06:57:26;2.40;99.90
21092;DHT22;10704;42.678;23.288;2023-12-28T06:59:53;2.40;99.90
21092;DHT22;10704;42.678;23.288;2023-12-28T07:02:19;2.40;99.90
21092;DHT22;10704;42.678;23.288;2023-12-28T07:04:45;2.50;99.90
21092;DHT22;10704;42.678;23.288;2023-12-28T07:07:11;2.50;99.90
21092;DHT22;10704;42.678;23.288;2023-12-28T07:09:37;2.50;99.90
21092;DHT22;10704;42.678;23.288;2023-12-28T07:12:03;2.70;99.90
21092;DHT22;10704;42.678;23.288;2023-12-28T07:14:29;2.90;99.90
21092;DHT22;10704;42.678;23.288;2023-12-28T07:16:55;3.10;99.90
21092;DHT22;10704;42.678;23.288;2023-12-28T07:19:21;3.20;99.90
21092;DHT22;10704;42.678;23.288;2023-12-28T07:21:47;3.30;99.90
21092;DHT22;10704;42.678;23.288;2023-12-28T07:24:13;3.60;99.90
21092;DHT22;10704;42.678;23.288;2023-12-28T07:26:39;3.60;99.90
21092;DHT22;10704;42.678;23.288;2023-12-28T07:29:05;3.50;99.90
21092;DHT22;10704;42.678;23.288;2023-12-28T07:31:31;3.70;99.90
21092;DHT22;10704;42.678;23.288;2023-12-28T07:33:57;3.50;99.90
21092;DHT22;10704;42.678;23.288;2023-12-28T07:36:23;3.80;99.90
21092;DHT22;10704;42.678;23.288;2023-12-28T07:38:50;4.10;99.90
21092;DHT22;10704;42.678;23.288;2023-12-28T07:41:15;4.70;99.90
21092;DHT22;10704;42.678;23.288;2023-12-28T07:43:41;5.40;99.90
21092;DHT22;10704;42.678;23.288;2023-12-28T07:46:07;6.10;99.90
21092;DHT22;10704;42.678;23.288;2023-12-28T07:48:34;6.80;99.90
21092;DHT22;10704;42.678;23.288;2023-12-28T07:51:06;7.20;99.90
21092;DHT22;10704;42.678;23.288;2023-12-28T07:53:32;7.50;99.90
21092;DHT22;10704;42.678;23.288;2023-12-28T07:55:58;7.90;99.90
21092;DHT22;10704;42.678;23.288;2023-12-28T07:58:24;8.40;99.90
21092;DHT22;10704;42.678;23.288;2023-12-28T08:00:50;8.60;99.90
21092;DHT22;10704;42.678;23.288;2023-12-28T08:03:17;8.70;99.90
21092;DHT22;10704;42.678;23.288;2023-12-28T08:05:43;8.90;99.90
21092;DHT22;10704;42.678;23.288;2023-12-28T08:08:09;9.10;99.90
21092;DHT22;10704;42.678;23.288;2023-12-28T08:10:35;9.50;99.90
21092;DHT22;10704;42.678;23.288;2023-12-28T08:13:01;9.80;99.90
21092;DHT22;10704;42.678;23.288;2023-12-28T08:15:27;9.70;99.90
21092;DHT22;10704;42.678;23.288;2023-12-28T08:17:53;10.00;99.90
21092;DHT22;10704;42.678;23.288;2023-12-28T08:20:19;10.50;99.90
21092;DHT22;10704;42.678;23.288;2023-12-28T08:22:44;10.90;99.90
21092;DHT22;10704;42.678;23.288;2023-12-28T08:25:10;11.50;99.90
21092;DHT22;10704;42.678;23.288;2023-12-28T08:27:36;11.70;99.90
21092;DHT22;10704;42.678;23.288;2023-12-28T08:30:04;12.00;99.90
21092;DHT22;10704;42.678;23.288;2023-12-28T08:32:30;12.40;99.20
21092;DHT22;10704;42.678;23.288;2023-12-28T08:34:56;12.70;98.30
21092;DHT22;10704;42.678;23.288;2023-12-28T08:37:22;12.80;96.40
21092;DHT22;10704;42.678;23.288;2023-12-28T08:39:48;13.50;94.40
21092;DHT22;10704;42.678;23.288;2023-12-28T08:42:14;13.70;92.20
21092;DHT22;10704;42.678;23.288;2023-12-28T08:44:40;13.30;93.10
21092;DHT22;10704;42.678;23.288;2023-12-28T08:47:06;13.50;91.60
21092;DHT22;10704;42.678;23.288;2023-12-28T08:49:31;13.50;91.20
21092;DHT22;10704;42.678;23.288;2023-12-28T08:51:59;12.50;91.90
21092;DHT22;10704;42.678;23.288;2023-12-28T08:54:24;12.40;93.80
21092;DHT22;10704;42.678;23.288;2023-12-28T08:56:50;12.40;92.90
21092;DHT22;10704;42.678;23.288;2023-12-28T08:59:16;12.70;93.40
21092;DHT22;10704;42.678;23.288;2023-12-28T09:01:42;12.90;92.00
21092;DHT22;10704;42.678;23.288;2023-12-28T09:04:08;13.20;92.20
21092;DHT22;10704;42.678;23.288;2023-12-28T09:06:34;13.80;90.30
21092;DHT22;10704;42.678;23.288;2023-12-28T09:09:01;14.60;87.40
21092;DHT22;10704;42.678;23.288;2023-12-28T09:11:27;14.90;84.50
21092;DHT22;10704;42.678;23.288;2023-12-28T09:13:54;14.70;82.80
21092;DHT22;10704;42.678;23.288;2023-12-28T09:16:20;14.50;83.10
21092;DHT22;10704;42.678;23.288;2023-12-28T09:18:46;14.60;83.30
21092;DHT22;10704;42.678;23.288;2023-12-28T09:21:13;15.70;79.10
21092;DHT22;10704;42.678;23.288;2023-12-28T09:23:38;16.30;76.70
21092;DHT22;10704;42.678;23.288;2023-12-28T09:26:06;16.60;74.30
21092;DHT22;10704;42.678;23.288;2023-12-28T09:28:33;17.00;73.70
21092;DHT22;10704;42.678;23.288;2023-12-28T09:31:00;17.20;70.90
21092;DHT22;10704;42.678;23.288;2023-12-28T09:33:26;17.50;69.80
21092;DHT22;10704;42.678;23.288;2023-12-28T09:35:52;17.60;68.20
21092;DHT22;10704;42.678;23.288;2023-12-28T09:38:19;17.70;68.10
21092;DHT22;10704;42.678;23.288;2023-12-28T09:40:45;18.20;67.30
21092;DHT22;10704;42.678;23.288;2023-12-28T09:43:31;19.20;65.20
21092;DHT22;10704;42.678;23.288;2023-12-28T09:46:06;19.30;62.60
21092;DHT22;10704;42.678;23.288;2023-12-28T09:48:34;19.30;62.70
21092;DHT22;10704;42.678;23.288;2023-12-28T09:51:02;19.00;62.70
21092;DHT22;10704;42.678;23.288;2023-12-28T09:53:28;19.50;62.20
21092;DHT22;10704;42.678;23.288;2023-12-28T09:55:55;19.30;60.70
21092;DHT22;10704;42.678;23.288;2023-12-28T09:58:22;17.70;63.70
21092;DHT22;10704;42.678;23.288;2023-12-28T10:00:49;17.40;66.20
21092;DHT22;10704;42.678;23.288;2023-12-28T10:03:16;18.10;64.60
21092;DHT22;10704;42.678;23.288;2023-12-28T10:05:44;18.10;65.20
21092;DHT22;10704;42.678;23.288;2023-12-28T10:08:14;19.20;62.70
21092;DHT22;10704;42.678;23.288;2023-12-28T10:10:41;19.60;61.60
21092;DHT22;10704;42.678;23.288;2023-12-28T10:13:08;19.90;61.00
21092;DHT22;10704;42.678;23.288;2023-12-28T10:15:38;20.30;59.50
21092;DHT22;10704;42.678;23.288;2023-12-28T10:18:05;19.70;60.50
21092;DHT22;10704;42.678;23.288;2023-12-28T10:20:31;20.20;59.40
21092;DHT22;10704;42.678;23.288;2023-12-28T10:23:00;20.30;59.00
21092;DHT22;10704;42.678;23.288;2023-12-28T10:25:32;20.60;58.90
21092;DHT22;10704;42.678;23.288;2023-12-28T10:28:03;21.10;58.20
21092;DHT22;10704;42.678;23.288;2023-12-28T10:30:29;20.90;57.50
21092;DHT22;10704;42.678;23.288;2023-12-28T10:32:55;20.30;58.40
21092;DHT22;10704;42.678;23.288;2023-12-28T10:35:21;19.90;59.50
21092;DHT22;10704;42.678;23.288;2023-12-28T10:37:52;20.40;58.20
21092;DHT22;10704;42.678;23.288;2023-12-28T10:40:21;19.60;59.20
21092;DHT22;10704;42.678;23.288;2023-12-28T10:42:59;19.80;59.00
21092;DHT22;10704;42.678;23.288;2023-12-28T10:45:29;20.20;58.30
21092;DHT22;10704;42.678;23.288;2023-12-28T10:48:06;20.30;58.80
21092;DHT22;10704;42.678;23.288;2023-12-28T10:50:39;20.70;57.30
21092;DHT22;10704;42.678;23.288;2023-12-28T10:58:48;20.20;58.30
21092;DHT22;10704;42.678;23.288;2023-12-28T11:01:22;21.30;57.10
21092;DHT22;10704;42.678;23.288;2023-12-28T11:03:58;21.90;55.90
21092;DHT22;10704;42.678;23.288;2023-12-28T11:06:26;22.00;55.10
21092;DHT22;10704;42.678;23.288;2023-12-28T11:08:54;21.80;55.90
21092;DHT22;10704;42.678;23.288;2023-12-28T11:11:22;21.70;55.50
21092;DHT22;10704;42.678;23.288;2023-12-28T11:13:49;21.60;56.30
21092;DHT22;10704;42.678;23.288;2023-12-28T11:16:17;21.60;56.10
21092;DHT22;10704;42.678;23.288;2023-12-28T11:18:44;21.40;56.20
21092;DHT22;10704;42.678;23.288;2023-12-28T11:21:11;21.50;56.00
21092;DHT22;10704;42.678;23.288;2023-12-28T11:23:37;21.40;55.70
21092;DHT22;10704;42.678;23.288;2023-12-28T11:26:03;21.00;56.80
21092;DHT22;10704;42.678;23.288;2023-12-28T11:28:29;21.00;57.00
21092;DHT22;10704;42.678;23.288;2023-12-28T11:30:56;21.40;56.70
21092;DHT22;10704;42.678;23.288;2023-12-28T11:33:22;22.00;55.70
21092;DHT22;10704;42.678;23.288;2023-12-28T11:35:48;21.60;55.50
21092;DHT22;10704;42.678;23.288;2023-12-28T11:38:15;21.60;56.10
21092;DHT22;10704;42.678;23.288;2023-12-28T11:40:45;21.40;56.20
21092;DHT22;10704;42.678;23.288;2023-12-28T11:43:18;21.50;56.00
21092;DHT22;10704;42.678;23.288;2023-12-28T11:45:55;21.50;55.70
21092;DHT22;10704;42.678;23.288;2023-12-28T11:48:28;21.00;56.30
21092;DHT22;10704;42.678;23.288;2023-12-28T11:50:58;21.10;57.30
21092;DHT22;10704;42.678;23.288;2023-12-28T11:53:25;21.30;56.50
21092;DHT22;10704;42.678;23.288;2023-12-28T11:55:51;20.80;56.60
21092;DHT22;10704;42.678;23.288;2023-12-28T11:58:18;20.70;57.10
21092;DHT22;10704;42.678;23.288;2023-12-28T12:00:44;20.80;57.40
21092;DHT22;10704;42.678;23.288;2023-12-28T12:03:11;20.90;57.10
21092;DHT22;10704;42.678;23.288;2023-12-28T12:05:37;20.30;57.90
21092;DHT22;10704;42.678;23.288;2023-12-28T12:08:08;20.60;57.50
21092;DHT22;10704;42.678;23.288;2023-12-28T12:10:36;21.10;56.90
21092;DHT22;10704;42.678;23.288;2023-12-28T12:13:02;20.40;57.20
21092;DHT22;10704;42.678;23.288;2023-12-28T12:15:30;20.40;57.30
21092;DHT22;10704;42.678;23.288;2023-12-28T12:17:56;20.40;57.30
21092;DHT22;10704;42.678;23.288;2023-12-28T12:20:22;20.30;57.30
21092;DHT22;10704;42.678;23.288;2023-12-28T12:22:48;19.70;58.70
21092;DHT22;10704;42.678;23.288;2023-12-28T12:25:18;20.20;58.30
21092;DHT22;10704;42.678;23.288;2023-12-28T12:27:45;20.30;57.80
21092;DHT22;10704;42.678;23.288;2023-12-28T12:30:11;20.40;57.40
21092;DHT22;10704;42.678;23.288;2023-12-28T12:32:37;20.20;57.50
21092;DHT22;10704;42.678;23.288;2023-12-28T12:35:06;20.10;57.80
21092;DHT22;10704;42.678;23.288;2023-12-28T12:37:32;19.80;58.50
21092;DHT22;10704;42.678;23.288;2023-12-28T12:39:58;19.80;58.20
21092;DHT22;10704;42.678;23.288;2023-12-28T12:42:25;19.70;58.40
21092;DHT22;10704;42.678;23.288;2023-12-28T12:44:51;19.80;58.40
21092;DHT22;10704;42.678;23.288;2023-12-28T12:47:17;19.60;58.60
21092;DHT22;10704;42.678;23.288;2023-12-28T12:49:43;19.70;58.40
21092;DHT22;10704;42.678;23.288;2023-12-28T12:52:10;20.00;57.70
21092;DHT22;10704;42.678;23.288;2023-12-28T12:54:36;20.20;57.30
21092;DHT22;10704;42.678;23.288;2023-12-28T12:57:02;20.20;57.10
21092;DHT22;10704;42.678;23.288;2023-12-28T12:59:29;19.90;57.40
21092;DHT22;10704;42.678;23.288;2023-12-28T13:01:55;19.70;58.10
21092;DHT22;10704;42.678;23.288;2023-12-28T13:04:21;19.30;58.60
21092;DHT22;10704;42.678;23.288;2023-12-28T13:06:47;19.40;58.90
21092;DHT22;10704;42.678;23.288;2023-12-28T13:09:13;19.50;58.50
21092;DHT22;10704;42.678;23.288;2023-12-28T13:11:39;19.60;58.40
21092;DHT22;10704;42.678;23.288;2023-12-28T13:14:05;19.50;58.10
21092;DHT22;10704;42.678;23.288;2023-12-28T13:16:31;18.80;59.10
21092;DHT22;10704;42.678;23.288;2023-12-28T13:18:57;18.70;59.60
21092;DHT22;10704;42.678;23.288;2023-12-28T13:21:23;19.20;59.60
21092;DHT22;10704;42.678;23.288;2023-12-28T13:23:49;19.50;58.40
21092;DHT22;10704;42.678;23.288;2023-12-28T13:26:15;19.70;57.90
21092;DHT22;10704;42.678;23.288;2023-12-28T13:28:41;19.80;57.70
21092;DHT22;10704;42.678;23.288;2023-12-28T13:31:08;19.90;57.60
21092;DHT22;10704;42.678;23.288;2023-12-28T13:33:34;19.60;57.60
21092;DHT22;10704;42.678;23.288;2023-12-28T13:36:00;19.70;58.00
21092;DHT22;10704;42.678;23.288;2023-12-28T13:38:26;19.60;58.10
21092;DHT22;10704;42.678;23.288;2023-12-28T13:40:53;19.80;57.80
21092;DHT22;10704;42.678;23.288;2023-12-28T13:43:18;20.10;57.00
21092;DHT22;10704;42.678;23.288;2023-12-28T13:45:45;20.30;56.90
21092;DHT22;10704;42.678;23.288;2023-12-28T13:48:13;20.50;56.50
21092;DHT22;10704;42.678;23.288;2023-12-28T13:50:39;20.60;56.20
21092;DHT22;10704;42.678;23.288;2023-12-28T13:53:05;20.80;55.80
21092;DHT22;10704;42.678;23.288;2023-12-28T13:55:33;20.30;56.00
21092;DHT22;10704;42.678;23.288;2023-12-28T13:57:59;19.30;57.80
21092;DHT22;10704;42.678;23.288;2023-12-28T14:00:25;18.20;59.70
21092;DHT22;10704;42.678;23.288;2023-12-28T14:02:51;16.80;62.80
21092;DHT22;10704;42.678;23.288;2023-12-28T14:05:18;15.70;66.00
21092;DHT22;10704;42.678;23.288;2023-12-28T14:07:45;14.80;68.80
21092;DHT22;10704;42.678;23.288;2023-12-28T14:10:10;14.30;71.10
21092;DHT22;10704;42.678;23.288;2023-12-28T14:12:36;14.10;72.10
21092;DHT22;10704;42.678;23.288;2023-12-28T14:15:03;13.90;72.90
21092;DHT22;10704;42.678;23.288;2023-12-28T14:17:31;13.80;73.80
21092;DHT22;10704;42.678;23.288;2023-12-28T14:19:57;13.60;74.90
21092;DHT22;10704;42.678;23.288;2023-12-28T14:22:23;13.30;76.60
21092;DHT22;10704;42.678;23.288;2023-12-28T14:24:50;13.00;78.50
21092;DHT22;10704;42.678;23.288;2023-12-28T14:27:18;12.70;80.10
21092;DHT22;10704;42.678;23.288;2023-12-28T14:29:45;12.60;81.50
21092;DHT22;10704;42.678;23.288;2023-12-28T14:32:12;12.30;83.60
21092;DHT22;10704;42.678;23.288;2023-12-28T14:34:38;12.10;85.00
21092;DHT22;10704;42.678;23.288;2023-12-28T14:37:04;12.00;87.20
21092;DHT22;10704;42.678;23.288;2023-12-28T14:39:30;11.90;88.00
21092;DHT22;10704;42.678;23.288;2023-12-28T14:41:56;11.80;89.30
21092;DHT22;10704;42.678;23.288;2023-12-28T14:44:23;11.70;90.30
21092;DHT22;10704;42.678;23.288;2023-12-28T14:46:49;11.50;91.50
21092;DHT22;10704;42.678;23.288;2023-12-28T14:49:15;11.40;92.60
21092;DHT22;10704;42.678;23.288;2023-12-28T14:51:41;11.30;93.80
21092;DHT22;10704;42.678;23.288;2023-12-28T14:54:07;11.10;95.00
21092;DHT22;10704;42.678;23.288;2023-12-28T14:56:33;10.90;96.30
21092;DHT22;10704;42.678;23.288;2023-12-28T14:58:59;10.80;98.00
21092;DHT22;10704;42.678;23.288;2023-12-28T15:01:24;10.60;99.90
21092;DHT22;10704;42.678;23.288;2023-12-28T15:03:50;10.50;99.90
21092;DHT22;10704;42.678;23.288;2023-12-28T15:06:16;10.30;99.90
21092;DHT22;10704;42.678;23.288;2023-12-28T15:08:42;10.10;99.90
21092;DHT22;10704;42.678;23.288;2023-12-28T15:11:09;10.10;99.90
21092;DHT22;10704;42.678;23.288;2023-12-28T15:13:37;9.90;99.90
21092;DHT22;10704;42.678;23.288;2023-12-28T15:16:03;9.80;99.90
21092;DHT22;10704;42.678;23.288;2023-12-28T15:18:30;9.70;99.90
21092;DHT22;10704;42.678;23.288;2023-12-28T15:20:57;9.80;99.90
21092;DHT22;10704;42.678;23.288;2023-12-28T15:23:24;9.70;99.90
21092;DHT22;10704;42.678;23.288;2023-12-28T15:25:52;9.50;99.90
21092;DHT22;10704;42.678;23.288;2023-12-28T15:28:18;9.40;99.90